createdAt,value
2019-03-17T00:03:34.137Z,99787.77
2019-03-17T00:08:36.521Z,99773.97
2019-03-17T00:13:38.626Z,99769.62
2019-03-17T00:18:41.173Z,99751.54
2019-03-17T00:23:47.993Z,99756.15
2019-03-17T00:28:50.245Z,99738.34
2019-03-17T00:33:52.258Z,99741.67
2019-03-17T00:38:57.188Z,99746.18
2019-03-17T00:43:59.220Z,99733.70
2019-03-17T00:49:01.456Z,99733.18
2019-03-17T00:54:03.493Z,99715.50
2019-03-17T00:59:05.837Z,99716.60
2019-03-17T01:04:07.910Z,99727.66
2019-03-17T01:09:10.062Z,99712.18
2019-03-17T01:14:12.202Z,99707.05
2019-03-17T01:19:17.202Z,99715.31
2019-03-17T01:24:25.389Z,99696.81
2019-03-17T01:29:27.501Z,99688.09
2019-03-17T01:34:29.527Z,99680.16
2019-03-17T01:39:31.561Z,99679.73
2019-03-17T01:44:33.642Z,99678.98
2019-03-17T01:49:35.725Z,99675.42
2019-03-17T01:54:37.972Z,99660.30
2019-03-17T01:59:42.544Z,99658.75
2019-03-17T02:04:44.656Z,99658.61
2019-03-17T02:09:46.680Z,99654.67
2019-03-17T02:14:48.964Z,99649.34
2019-03-17T02:19:54.096Z,99645.01
2019-03-17T02:24:56.306Z,99611.03
2019-03-17T02:29:58.315Z,99598.80
2019-03-17T02:35:00.638Z,99600.27
2019-03-17T02:40:03.244Z,99585.66
2019-03-17T02:45:06.153Z,99575.89
2019-03-17T02:50:08.450Z,99575.39
2019-03-17T02:55:10.675Z,99576.42
2019-03-17T03:00:13.449Z,99575.19
2019-03-17T03:05:15.639Z,99571.59
2019-03-17T03:10:17.662Z,99573.80
2019-03-17T03:15:19.815Z,99587.98
2019-03-17T03:20:23.207Z,99581.58
2019-03-17T03:25:25.309Z,99585.20
2019-03-17T03:30:27.363Z,99581.78
2019-03-17T03:35:29.581Z,99601.44
2019-03-17T03:40:32.152Z,99607.30
2019-03-17T03:45:34.189Z,99608.48
2019-03-17T03:50:36.219Z,99636.90
2019-03-17T03:55:41.963Z,99653.84
2019-03-17T04:00:42.389Z,99649.73
2019-03-17T04:05:44.616Z,99845.47
2019-03-17T04:10:46.795Z,99665.42
2019-03-17T04:15:49.126Z,99748.74
2019-03-17T04:20:54.048Z,99410.12
2019-03-17T04:25:56.117Z,99633.03
2019-03-17T04:30:59.926Z,99129.52
2019-03-17T04:36:02.250Z,99812.31
2019-03-17T04:41:05.954Z,99831.13
2019-03-17T04:46:08.041Z,99837.69
2019-03-17T04:51:10.082Z,99826.89
2019-03-17T04:56:12.368Z,99809.10
2019-03-17T05:01:14.466Z,99668.89
2019-03-17T05:06:16.610Z,99368.21
2019-03-17T05:11:29.168Z,99130.27
2019-03-17T05:16:31.342Z,99057.80
2019-03-17T05:21:35.211Z,99033.51
2019-03-17T05:26:37.931Z,99136.59
2019-03-17T05:31:41.321Z,99177.34
2019-03-17T05:36:43.654Z,99257.34
2019-03-17T05:41:48.055Z,99326.31
2019-03-17T05:46:52.152Z,99818.87
2019-03-17T05:51:55.983Z,99819.89
2019-03-17T05:56:58.187Z,99828.46
2019-03-17T06:02:00.197Z,99825.48
2019-03-17T06:07:02.538Z,99833.80
2019-03-17T06:12:04.570Z,99849.37
2019-03-17T06:17:09.288Z,99861.22
2019-03-17T06:22:14.214Z,99861.20
2019-03-17T06:27:16.662Z,99848.08
2019-03-17T06:32:18.662Z,99845.88
2019-03-17T06:37:30.958Z,99853.42
2019-03-17T06:42:27.493Z,99863.69
2019-03-17T06:47:29.523Z,99880.95
2019-03-17T06:52:31.547Z,99884.09
2019-03-17T06:57:33.758Z,99906.23
2019-03-17T07:02:38.521Z,99915.94
2019-03-17T07:07:45.645Z,99920.94
2019-03-17T07:12:47.785Z,99930.02
2019-03-17T07:17:52.385Z,99935.94
2019-03-17T07:22:54.555Z,99944.61
2019-03-17T07:27:56.909Z,99955.28
2019-03-17T07:32:58.942Z,99951.52
2019-03-17T07:38:04.083Z,99970.78
2019-03-17T07:43:08.194Z,99992.05
2019-03-17T07:48:10.260Z,99986.34
2019-03-17T07:53:14.833Z,99994.25
2019-03-17T07:58:17.096Z,99999.48
2019-03-17T08:03:19.132Z,100001.00
2019-03-17T08:08:22.358Z,100003.06
2019-03-17T08:13:24.415Z,100020.30
2019-03-17T08:18:26.552Z,100032.22
2019-03-17T08:23:28.625Z,100032.20
2019-03-17T08:28:30.794Z,100042.27
2019-03-17T08:33:32.875Z,100052.31
2019-03-17T08:38:35.064Z,100044.75
2019-03-17T08:43:37.256Z,100060.41
2019-03-17T08:48:40.411Z,100067.86
2019-03-17T08:53:42.476Z,100082.37
2019-03-17T08:58:44.857Z,100110.86
2019-03-17T09:03:47.131Z,100114.87
2019-03-17T09:08:50.868Z,100131.97
2019-03-17T09:13:52.942Z,100129.70
2019-03-17T09:18:56.080Z,100132.28
2019-03-17T09:24:00.577Z,100136.94
2019-03-17T09:29:02.900Z,100140.31
2019-03-17T09:34:04.997Z,100137.67
2019-03-17T09:39:10.094Z,100138.34
2019-03-17T09:44:12.172Z,100147.45
2019-03-17T09:49:14.196Z,100158.86
2019-03-17T09:54:18.386Z,100163.69
2019-03-17T09:59:22.565Z,100171.34
2019-03-17T10:04:26.574Z,100187.62
2019-03-17T10:09:28.664Z,100191.59
2019-03-17T10:14:30.742Z,100198.12
2019-03-17T10:19:35.553Z,100205.63
2019-03-17T10:24:37.860Z,100217.31
2019-03-17T10:29:42.962Z,100226.68
2019-03-17T10:34:47.344Z,100235.98
2019-03-17T10:39:50.751Z,100238.31
2019-03-17T10:44:52.960Z,100242.67
2019-03-17T10:49:58.031Z,100242.67
2019-03-17T10:55:00.426Z,100266.98
2019-03-17T11:00:02.593Z,100266.98
2019-03-17T11:05:05.195Z,100285.16
2019-03-17T11:10:07.517Z,100293.52
2019-03-17T11:15:13.234Z,100308.45
2019-03-17T11:20:18.442Z,100299.97
2019-03-17T11:25:24.617Z,100304.97
2019-03-17T11:30:26.725Z,100342.47
2019-03-17T11:35:28.929Z,100342.47
2019-03-17T11:40:31.186Z,100338.69
2019-03-17T11:45:33.544Z,100351.24
2019-03-17T11:50:38.032Z,100353.68
2019-03-17T11:55:43.041Z,100392.53
2019-03-17T12:00:45.096Z,100369.42
2019-03-17T12:05:47.262Z,100369.42
2019-03-17T12:10:54.867Z,100389.09
2019-03-17T12:16:05.364Z,100391.16
2019-03-17T12:21:10.432Z,100411.68
2019-03-17T12:26:13.202Z,100411.68
2019-03-17T12:31:18.188Z,100413.28
2019-03-17T12:36:21.606Z,100413.28
2019-03-17T12:41:24.534Z,100424.52
2019-03-17T12:46:29.313Z,100425.42
2019-03-17T12:51:31.421Z,100431.56
2019-03-17T12:56:35.834Z,100431.56
2019-03-17T13:01:39.781Z,100441.05
2019-03-17T13:06:42.463Z,100441.05
2019-03-17T13:11:45.684Z,100434.14
2019-03-17T13:16:48.256Z,100454.36
2019-03-17T13:21:50.242Z,100461.19
2019-03-17T13:26:52.571Z,100454.73
2019-03-17T13:31:56.694Z,100457.02
2019-03-17T13:36:58.861Z,100466.25
2019-03-17T13:42:02.797Z,100464.08
2019-03-17T13:47:10.105Z,100458.77
2019-03-17T13:52:12.188Z,100493.81
2019-03-17T13:57:14.614Z,100505.82
2019-03-17T14:02:22.213Z,100492.46
2019-03-17T14:07:24.300Z,100527.11
2019-03-17T14:12:26.361Z,100527.11
2019-03-17T14:17:28.583Z,100533.92
2019-03-17T14:22:33.210Z,100552.16
2019-03-17T14:27:38.679Z,100545.36
2019-03-17T14:32:43.094Z,100552.34
2019-03-17T14:37:47.297Z,100562.73
2019-03-17T14:42:49.370Z,100562.45
2019-03-17T14:47:51.566Z,100542.88
2019-03-17T14:52:54.686Z,100558.29
2019-03-17T14:57:58.879Z,100567.80
2019-03-17T15:03:02.025Z,100565.56
2019-03-17T15:08:04.340Z,100580.33
2019-03-17T15:13:06.949Z,100578.63
2019-03-17T15:18:11.629Z,100575.61
2019-03-17T15:23:14.071Z,100581.73
2019-03-17T15:28:16.517Z,100599.53
2019-03-17T15:33:22.005Z,100600.58
2019-03-17T15:38:26.794Z,100616.67
2019-03-17T15:43:29.099Z,100610.13
2019-03-17T15:48:34.266Z,100619.95
2019-03-17T15:53:36.507Z,100621.56
2019-03-17T15:58:38.870Z,100620.51
2019-03-17T16:03:41.009Z,100630.64
2019-03-17T16:08:46.342Z,100626.84
2019-03-17T16:13:51.490Z,100638.21
2019-03-17T16:18:55.967Z,100634.92
2019-03-17T16:24:02.542Z,100642.87
2019-03-17T16:29:07.552Z,100655.39
2019-03-17T16:34:09.880Z,100648.23
2019-03-17T16:39:11.941Z,100658.89
2019-03-17T16:44:15.414Z,100667.73
2019-03-17T16:49:18.048Z,100686.25
2019-03-17T16:54:20.328Z,100687.93
2019-03-17T16:59:22.385Z,100699.70
2019-03-17T17:04:24.403Z,100702.77
2019-03-17T17:09:26.519Z,100703.81
2019-03-17T17:14:28.613Z,100714.02
2019-03-17T17:19:35.027Z,100719.92
2019-03-17T17:24:37.030Z,100725.51
2019-03-17T17:29:44.321Z,100731.36
2019-03-17T17:34:48.392Z,100728.02
2019-03-17T17:39:50.414Z,100735.55
2019-03-17T17:44:55.217Z,100747.27
2019-03-17T17:49:57.387Z,100762.66
2019-03-17T17:54:59.500Z,100772.20
2019-03-17T18:00:01.600Z,100774.64
2019-03-17T18:05:04.126Z,100776.88
2019-03-17T18:10:06.740Z,100779.20
2019-03-17T18:15:12.142Z,100787.84
2019-03-17T18:20:14.223Z,100814.89
2019-03-17T18:25:17.633Z,100809.61
2019-03-17T18:30:20.385Z,100810.94
2019-03-17T18:35:22.745Z,100822.09
2019-03-17T18:40:32.395Z,100821.64
2019-03-17T18:45:38.384Z,100829.25
2019-03-17T18:50:40.649Z,100838.58
2019-03-17T18:55:43.240Z,100835.30
2019-03-17T19:00:45.423Z,100848.31
2019-03-17T19:05:47.809Z,100851.92
2019-03-17T19:10:49.864Z,100854.09
2019-03-17T19:15:52.082Z,100865.46
2019-03-17T19:20:54.368Z,100870.75
2019-03-17T19:25:56.689Z,100875.31
2019-03-17T19:31:00.181Z,100897.11
2019-03-17T19:36:04.557Z,100907.28
2019-03-17T19:41:07.094Z,100915.20
2019-03-17T19:46:12.001Z,100912.84
2019-03-17T19:51:19.133Z,100918.99
2019-03-17T19:56:21.438Z,100916.28
2019-03-17T20:01:25.528Z,100916.88
2019-03-17T20:06:27.871Z,100919.74
2019-03-17T20:11:33.970Z,100929.99
2019-03-17T20:16:36.133Z,100933.86
2019-03-17T20:21:38.175Z,100943.81
2019-03-17T20:26:40.505Z,100943.84
2019-03-17T20:31:42.559Z,100947.22
2019-03-17T20:36:46.013Z,100953.93
2019-03-17T20:41:53.082Z,100961.31
2019-03-17T20:46:56.893Z,100964.38
2019-03-17T20:52:00.266Z,100961.45
2019-03-17T20:57:02.396Z,100960.75
2019-03-17T21:02:04.636Z,100968.06
2019-03-17T21:07:07.298Z,100980.09
2019-03-17T21:12:10.025Z,100987.33
2019-03-17T21:17:14.154Z,100991.53
2019-03-17T21:22:16.384Z,100998.42
2019-03-17T21:27:19.612Z,100996.15
2019-03-17T21:32:24.200Z,100994.17
2019-03-17T21:37:26.565Z,101002.27
2019-03-17T21:42:28.600Z,101002.12
2019-03-17T21:47:33.067Z,101009.40
2019-03-17T21:52:37.784Z,101008.31
2019-03-17T21:57:40.117Z,101011.92
2019-03-17T22:02:42.420Z,101022.74
2019-03-17T22:07:50.237Z,101024.84
2019-03-17T22:12:49.756Z,101031.22
2019-03-17T22:17:52.491Z,101037.95
2019-03-17T22:22:56.755Z,101038.79
2019-03-17T22:28:08.210Z,101041.20
2019-03-17T22:33:05.195Z,101052.77
2019-03-17T22:38:07.259Z,101044.56
2019-03-17T22:43:11.682Z,101048.07
2019-03-17T22:48:14.846Z,101053.09
2019-03-17T22:53:17.048Z,101057.19
2019-03-17T22:58:19.460Z,101047.32
2019-03-17T23:03:21.499Z,101058.62
2019-03-17T23:08:23.684Z,101055.05
2019-03-17T23:13:25.697Z,101062.36
2019-03-17T23:18:27.955Z,101064.33
2019-03-17T23:23:31.895Z,101060.35
2019-03-17T23:28:34.184Z,101064.55
2019-03-17T23:33:36.380Z,101064.08
2019-03-17T23:38:38.961Z,101057.92
2019-03-17T23:43:43.220Z,101054.70
2019-03-17T23:48:45.362Z,101045.87
2019-03-17T23:53:49.561Z,101052.48
2019-03-17T23:58:53.560Z,101063.22
